sensor_id;sensor_type;location;lat;lon;timestamp;pressure;altitude;pressure_sealevel;temperature;humidity
70141;BME280;57508;43.086;0.136;2022-07-15T00:00:13;96245.16;;;30.87;36.59
70141;BME280;57508;43.086;0.136;2022-07-15T00:02:39;96234.56;;;30.93;36.84
70141;BME280;57508;43.086;0.136;2022-07-15T00:05:05;96241.28;;;31.16;36.01
70141;BME280;57508;43.086;0.136;2022-07-15T00:07:30;96238.22;;;30.83;37.10
70141;BME280;57508;43.086;0.136;2022-07-15T00:09:56;96237.91;;;30.38;38.09
70141;BME280;57508;43.086;0.136;2022-07-15T00:12:43;96231.78;;;30.62;37.97
70141;BME280;57508;43.086;0.136;2022-07-15T00:15:09;96233.44;;;30.13;38.75
70141;BME280;57508;43.086;0.136;2022-07-15T00:17:34;96235.72;;;30.22;38.08
70141;BME280;57508;43.086;0.136;2022-07-15T00:20:00;96229.41;;;29.87;39.30
70141;BME280;57508;43.086;0.136;2022-07-15T00:22:25;96225.00;;;29.44;39.56
70141;BME280;57508;43.086;0.136;2022-07-15T00:24:50;96223.75;;;28.88;40.25
70141;BME280;57508;43.086;0.136;2022-07-15T00:27:16;96220.53;;;29.15;40.47
70141;BME280;57508;43.086;0.136;2022-07-15T00:29:41;96214.78;;;28.98;40.90
70141;BME280;57508;43.086;0.136;2022-07-15T00:32:06;96211.31;;;30.08;38.43
70141;BME280;57508;43.086;0.136;2022-07-15T00:34:32;96209.06;;;29.46;39.02
70141;BME280;57508;43.086;0.136;2022-07-15T00:36:57;96211.66;;;30.10;38.57
70141;BME280;57508;43.086;0.136;2022-07-15T00:39:22;96200.03;;;29.60;39.00
70141;BME280;57508;43.086;0.136;2022-07-15T00:41:48;96201.34;;;29.90;38.26
70141;BME280;57508;43.086;0.136;2022-07-15T00:44:13;96198.38;;;29.73;38.83
70141;BME280;57508;43.086;0.136;2022-07-15T00:46:38;96198.88;;;30.07;37.54
70141;BME280;57508;43.086;0.136;2022-07-15T00:49:05;96187.13;;;30.17;37.99
70141;BME280;57508;43.086;0.136;2022-07-15T00:51:44;96189.00;;;29.82;38.47
70141;BME280;57508;43.086;0.136;2022-07-15T00:54:12;96185.31;;;29.99;37.77
70141;BME280;57508;43.086;0.136;2022-07-15T00:56:46;96187.81;;;29.83;38.88
70141;BME280;57508;43.086;0.136;2022-07-15T00:59:12;96181.97;;;29.80;37.96
70141;BME280;57508;43.086;0.136;2022-07-15T01:01:37;96183.09;;;29.34;39.78
70141;BME280;57508;43.086;0.136;2022-07-15T01:04:03;96177.09;;;29.00;40.49
70141;BME280;57508;43.086;0.136;2022-07-15T01:06:29;96184.09;;;28.98;40.14
70141;BME280;57508;43.086;0.136;2022-07-15T01:08:54;96174.78;;;28.88;40.54
70141;BME280;57508;43.086;0.136;2022-07-15T01:11:20;96182.81;;;30.20;37.99
70141;BME280;57508;43.086;0.136;2022-07-15T01:13:45;96180.75;;;30.27;37.41
70141;BME280;57508;43.086;0.136;2022-07-15T01:16:11;96181.84;;;29.42;39.33
70141;BME280;57508;43.086;0.136;2022-07-15T01:18:36;96177.34;;;30.20;37.41
70141;BME280;57508;43.086;0.136;2022-07-15T01:21:02;96179.81;;;29.61;38.88
70141;BME280;57508;43.086;0.136;2022-07-15T01:23:27;96171.84;;;30.23;37.89
70141;BME280;57508;43.086;0.136;2022-07-15T01:25:52;96163.59;;;30.30;37.21
70141;BME280;57508;43.086;0.136;2022-07-15T01:28:18;96163.81;;;30.09;38.36
70141;BME280;57508;43.086;0.136;2022-07-15T01:30:43;96170.47;;;29.05;39.99
70141;BME280;57508;43.086;0.136;2022-07-15T01:33:09;96160.00;;;29.00;40.19
70141;BME280;57508;43.086;0.136;2022-07-15T01:35:34;96162.06;;;29.41;39.25
70141;BME280;57508;43.086;0.136;2022-07-15T01:37:59;96154.00;;;29.23;39.78
70141;BME280;57508;43.086;0.136;2022-07-15T01:40:25;96156.50;;;28.99;40.27
70141;BME280;57508;43.086;0.136;2022-07-15T01:42:50;96155.53;;;29.77;38.63
70141;BME280;57508;43.086;0.136;2022-07-15T01:45:15;96156.44;;;30.05;37.91
70141;BME280;57508;43.086;0.136;2022-07-15T01:47:41;96149.44;;;30.04;37.88
70141;BME280;57508;43.086;0.136;2022-07-15T01:50:07;96154.53;;;30.02;38.17
70141;BME280;57508;43.086;0.136;2022-07-15T01:52:33;96153.72;;;30.05;37.99
70141;BME280;57508;43.086;0.136;2022-07-15T01:54:58;96162.34;;;30.00;37.40
70141;BME280;57508;43.086;0.136;2022-07-15T01:57:24;96157.78;;;29.86;37.77
70141;BME280;57508;43.086;0.136;2022-07-15T01:59:49;96159.56;;;29.62;38.97
70141;BME280;57508;43.086;0.136;2022-07-15T02:02:14;96152.25;;;29.51;38.94
70141;BME280;57508;43.086;0.136;2022-07-15T02:04:40;96153.81;;;29.49;39.39
70141;BME280;57508;43.086;0.136;2022-07-15T02:07:05;96151.16;;;28.77;40.70
70141;BME280;57508;43.086;0.136;2022-07-15T02:09:30;96149.63;;;29.37;39.29
70141;BME280;57508;43.086;0.136;2022-07-15T02:11:55;96152.31;;;29.40;39.55
70141;BME280;57508;43.086;0.136;2022-07-15T02:14:21;96152.00;;;29.31;39.14
70141;BME280;57508;43.086;0.136;2022-07-15T02:16:46;96149.34;;;29.73;38.50
70141;BME280;57508;43.086;0.136;2022-07-15T02:19:12;96155.53;;;29.77;38.53
70141;BME280;57508;43.086;0.136;2022-07-15T02:21:37;96146.69;;;29.70;38.17
70141;BME280;57508;43.086;0.136;2022-07-15T02:24:03;96142.94;;;29.45;39.46
70141;BME280;57508;43.086;0.136;2022-07-15T02:26:29;96142.63;;;29.39;39.46
70141;BME280;57508;43.086;0.136;2022-07-15T02:28:54;96144.19;;;29.37;39.59
70141;BME280;57508;43.086;0.136;2022-07-15T02:31:19;96146.69;;;29.70;38.90
70141;BME280;57508;43.086;0.136;2022-07-15T02:33:45;96136.69;;;29.56;39.13
70141;BME280;57508;43.086;0.136;2022-07-15T02:36:10;96140.94;;;29.03;40.46
70141;BME280;57508;43.086;0.136;2022-07-15T02:38:36;96134.00;;;29.48;39.53
70141;BME280;57508;43.086;0.136;2022-07-15T02:41:01;96136.34;;;29.46;38.53
70141;BME280;57508;43.086;0.136;2022-07-15T02:43:27;96136.47;;;29.32;39.08
70141;BME280;57508;43.086;0.136;2022-07-15T02:45:53;96128.78;;;29.19;39.35
70141;BME280;57508;43.086;0.136;2022-07-15T02:48:18;96129.03;;;29.36;39.68
70141;BME280;57508;43.086;0.136;2022-07-15T02:50:43;96131.66;;;29.47;38.34
70141;BME280;57508;43.086;0.136;2022-07-15T02:53:09;96126.25;;;29.43;39.14
70141;BME280;57508;43.086;0.136;2022-07-15T02:55:35;96133.22;;;29.48;38.51
70141;BME280;57508;43.086;0.136;2022-07-15T02:58:00;96125.09;;;29.44;39.35
70141;BME280;57508;43.086;0.136;2022-07-15T03:00:27;96127.53;;;29.31;39.04
70141;BME280;57508;43.086;0.136;2022-07-15T03:02:52;96122.03;;;28.78;40.45
70141;BME280;57508;43.086;0.136;2022-07-15T03:05:18;96128.13;;;29.00;40.14
70141;BME280;57508;43.086;0.136;2022-07-15T03:07:43;96133.94;;;29.02;39.72
70141;BME280;57508;43.086;0.136;2022-07-15T03:10:09;96125.78;;;29.02;39.60
70141;BME280;57508;43.086;0.136;2022-07-15T03:12:34;96130.91;;;28.93;39.95
70141;BME280;57508;43.086;0.136;2022-07-15T03:15:00;96125.19;;;28.65;40.63
70141;BME280;57508;43.086;0.136;2022-07-15T03:17:26;96121.97;;;27.81;42.53
70141;BME280;57508;43.086;0.136;2022-07-15T03:19:51;96124.16;;;28.34;41.57
70141;BME280;57508;43.086;0.136;2022-07-15T03:22:16;96117.81;;;28.70;40.39
70141;BME280;57508;43.086;0.136;2022-07-15T03:24:42;96134.25;;;28.37;41.61
70141;BME280;57508;43.086;0.136;2022-07-15T03:27:07;96133.44;;;28.47;40.79
70141;BME280;57508;43.086;0.136;2022-07-15T03:29:34;96130.72;;;28.44;40.89
70141;BME280;57508;43.086;0.136;2022-07-15T03:31:59;96134.75;;;27.77;42.30
70141;BME280;57508;43.086;0.136;2022-07-15T03:34:24;96136.22;;;28.33;41.43
70141;BME280;57508;43.086;0.136;2022-07-15T03:36:50;96141.38;;;27.50;43.09
70141;BME280;57508;43.086;0.136;2022-07-15T03:39:15;96135.44;;;28.21;41.40
70141;BME280;57508;43.086;0.136;2022-07-15T03:41:41;96130.09;;;27.96;41.92
70141;BME280;57508;43.086;0.136;2022-07-15T03:44:06;96135.44;;;28.36;41.07
70141;BME280;57508;43.086;0.136;2022-07-15T03:46:31;96140.16;;;27.95;41.87
70141;BME280;57508;43.086;0.136;2022-07-15T03:48:58;96151.69;;;26.83;44.89
70141;BME280;57508;43.086;0.136;2022-07-15T03:51:23;96154.13;;;27.10;44.10
70141;BME280;57508;43.086;0.136;2022-07-15T03:53:57;96147.97;;;27.68;42.40
70141;BME280;57508;43.086;0.136;2022-07-15T03:56:22;96147.94;;;28.00;41.73
70141;BME280;57508;43.086;0.136;2022-07-15T03:58:47;96144.38;;;28.33;41.23
70141;BME280;57508;43.086;0.136;2022-07-15T04:01:13;96147.88;;;28.15;41.43
70141;BME280;57508;43.086;0.136;2022-07-15T04:03:38;96156.09;;;27.60;42.71
70141;BME280;57508;43.086;0.136;2022-07-15T04:06:04;96151.28;;;28.52;40.53
70141;BME280;57508;43.086;0.136;2022-07-15T04:08:29;96159.69;;;28.76;39.84
70141;BME280;57508;43.086;0.136;2022-07-15T04:10:55;96153.28;;;28.33;40.63
70141;BME280;57508;43.086;0.136;2022-07-15T04:13:21;96155.63;;;28.13;41.19
70141;BME280;57508;43.086;0.136;2022-07-15T04:15:46;96157.50;;;28.49;40.46
70141;BME280;57508;43.086;0.136;2022-07-15T04:18:12;96157.16;;;28.32;40.85
70141;BME280;57508;43.086;0.136;2022-07-15T04:20:37;96167.88;;;28.72;40.00
70141;BME280;57508;43.086;0.136;2022-07-15T04:23:03;96167.84;;;28.76;39.84
70141;BME280;57508;43.086;0.136;2022-07-15T04:25:28;96169.00;;;28.82;39.27
70141;BME280;57508;43.086;0.136;2022-07-15T04:27:53;96165.00;;;27.90;41.61
70141;BME280;57508;43.086;0.136;2022-07-15T04:30:18;96169.97;;;28.28;40.77
70141;BME280;57508;43.086;0.136;2022-07-15T04:32:44;96176.03;;;28.72;39.82
70141;BME280;57508;43.086;0.136;2022-07-15T04:35:09;96188.81;;;28.83;39.93
70141;BME280;57508;43.086;0.136;2022-07-15T04:37:34;96188.44;;;28.81;39.30
70141;BME280;57508;43.086;0.136;2022-07-15T04:40:00;96191.97;;;28.74;39.70
70141;BME280;57508;43.086;0.136;2022-07-15T04:42:25;96189.63;;;28.72;39.43
70141;BME280;57508;43.086;0.136;2022-07-15T04:44:50;96187.50;;;28.01;41.49
70141;BME280;57508;43.086;0.136;2022-07-15T04:47:16;96192.91;;;28.16;41.34
70141;BME280;57508;43.086;0.136;2022-07-15T04:49:41;96195.59;;;28.38;40.52
70141;BME280;57508;43.086;0.136;2022-07-15T04:52:25;96194.06;;;28.15;41.17
70141;BME280;57508;43.086;0.136;2022-07-15T04:54:51;96195.22;;;28.32;40.79
70141;BME280;57508;43.086;0.136;2022-07-15T04:57:16;96193.28;;;28.33;40.55
70141;BME280;57508;43.086;0.136;2022-07-15T04:59:41;96202.22;;;28.15;40.93
70141;BME280;57508;43.086;0.136;2022-07-15T05:02:07;96203.00;;;28.08;41.28
70141;BME280;57508;43.086;0.136;2022-07-15T05:04:32;96203.72;;;27.29;43.07
70141;BME280;57508;43.086;0.136;2022-07-15T05:06:57;96199.09;;;28.13;40.99
70141;BME280;57508;43.086;0.136;2022-07-15T05:09:22;96199.06;;;28.35;40.69
70141;BME280;57508;43.086;0.136;2022-07-15T05:11:48;96199.53;;;28.00;41.36
70141;BME280;57508;43.086;0.136;2022-07-15T05:14:13;96204.94;;;28.11;41.15
70141;BME280;57508;43.086;0.136;2022-07-15T05:16:38;96205.28;;;28.32;40.53
70141;BME280;57508;43.086;0.136;2022-07-15T05:19:04;96204.16;;;28.33;40.87
70141;BME280;57508;43.086;0.136;2022-07-15T05:21:29;96207.25;;;27.40;42.71
70141;BME280;57508;43.086;0.136;2022-07-15T05:23:54;96204.41;;;28.64;40.57
70141;BME280;57508;43.086;0.136;2022-07-15T05:26:20;96210.13;;;28.95;39.68
70141;BME280;57508;43.086;0.136;2022-07-15T05:28:46;96208.63;;;28.79;40.04
70141;BME280;57508;43.086;0.136;2022-07-15T05:31:11;96209.09;;;28.60;40.72
70141;BME280;57508;43.086;0.136;2022-07-15T05:33:36;96212.19;;;28.69;40.25
70141;BME280;57508;43.086;0.136;2022-07-15T05:36:01;96223.66;;;29.13;40.00
70141;BME280;57508;43.086;0.136;2022-07-15T05:38:27;96221.47;;;29.50;38.98
70141;BME280;57508;43.086;0.136;2022-07-15T05:40:52;96222.59;;;29.64;38.43
70141;BME280;57508;43.086;0.136;2022-07-15T05:43:18;96221.06;;;29.56;38.22
70141;BME280;57508;43.086;0.136;2022-07-15T05:45:44;96225.72;;;30.04;37.87
70141;BME280;57508;43.086;0.136;2022-07-15T05:48:09;96220.25;;;29.62;38.13
70141;BME280;57508;43.086;0.136;2022-07-15T05:50:34;96225.84;;;30.36;36.93
70141;BME280;57508;43.086;0.136;2022-07-15T05:52:59;96224.75;;;30.64;36.24
70141;BME280;57508;43.086;0.136;2022-07-15T05:55:25;96231.75;;;31.00;36.11
70141;BME280;57508;43.086;0.136;2022-07-15T05:57:50;96235.63;;;31.30;36.31
70141;BME280;57508;43.086;0.136;2022-07-15T06:00:16;96238.41;;;30.99;36.28
70141;BME280;57508;43.086;0.136;2022-07-15T06:02:41;96244.31;;;31.53;35.50
70141;BME280;57508;43.086;0.136;2022-07-15T06:05:07;96237.97;;;31.60;34.72
70141;BME280;57508;43.086;0.136;2022-07-15T06:07:32;96238.66;;;31.91;34.74
70141;BME280;57508;43.086;0.136;2022-07-15T06:09:58;96249.09;;;32.20;33.95
70141;BME280;57508;43.086;0.136;2022-07-15T06:12:23;96244.00;;;32.43;33.72
70141;BME280;57508;43.086;0.136;2022-07-15T06:14:48;96241.13;;;32.54;33.35
70141;BME280;57508;43.086;0.136;2022-07-15T06:17:14;96233.13;;;33.20;31.27
70141;BME280;57508;43.086;0.136;2022-07-15T06:19:39;96243.28;;;33.03;31.08
70141;BME280;57508;43.086;0.136;2022-07-15T06:22:05;96246.81;;;33.00;31.55
70141;BME280;57508;43.086;0.136;2022-07-15T06:24:31;96236.84;;;33.47;31.24
70141;BME280;57508;43.086;0.136;2022-07-15T06:26:57;96239.03;;;32.99;32.22
70141;BME280;57508;43.086;0.136;2022-07-15T06:29:22;96233.78;;;33.62;31.28
70141;BME280;57508;43.086;0.136;2022-07-15T06:31:47;96233.28;;;33.83;30.39
70141;BME280;57508;43.086;0.136;2022-07-15T06:34:13;96235.84;;;33.91;31.17
70141;BME280;57508;43.086;0.136;2022-07-15T06:36:38;96244.56;;;34.19;30.84
70141;BME280;57508;43.086;0.136;2022-07-15T06:39:04;96238.16;;;34.39;30.85
70141;BME280;57508;43.086;0.136;2022-07-15T06:41:29;96238.34;;;35.04;30.16
70141;BME280;57508;43.086;0.136;2022-07-15T06:43:56;96236.59;;;34.97;29.27
70141;BME280;57508;43.086;0.136;2022-07-15T06:46:21;96237.94;;;35.70;28.49
70141;BME280;57508;43.086;0.136;2022-07-15T06:48:46;96241.81;;;36.08;27.98
70141;BME280;57508;43.086;0.136;2022-07-15T06:51:12;96236.19;;;36.12;26.89
70141;BME280;57508;43.086;0.136;2022-07-15T06:53:37;96235.84;;;35.75;26.43
70141;BME280;57508;43.086;0.136;2022-07-15T06:56:02;96238.28;;;35.46;26.38
70141;BME280;57508;43.086;0.136;2022-07-15T06:58:28;96232.00;;;36.20;27.42
70141;BME280;57508;43.086;0.136;2022-07-15T07:00:53;96229.28;;;36.43;25.85
70141;BME280;57508;43.086;0.136;2022-07-15T07:03:19;96233.31;;;36.51;27.27
70141;BME280;57508;43.086;0.136;2022-07-15T07:05:44;96227.91;;;36.92;26.41
70141;BME280;57508;43.086;0.136;2022-07-15T07:08:09;96215.88;;;37.40;24.70
70141;BME280;57508;43.086;0.136;2022-07-15T07:10:35;96220.59;;;37.30;23.99
70141;BME280;57508;43.086;0.136;2022-07-15T07:13:00;96217.91;;;37.58;24.09
70141;BME280;57508;43.086;0.136;2022-07-15T07:15:25;96219.56;;;38.06;24.37
70141;BME280;57508;43.086;0.136;2022-07-15T07:17:51;96219.56;;;38.25;26.05
70141;BME280;57508;43.086;0.136;2022-07-15T07:20:16;96223.81;;;38.54;24.92
70141;BME280;57508;43.086;0.136;2022-07-15T07:22:42;96224.00;;;38.41;25.48
70141;BME280;57508;43.086;0.136;2022-07-15T07:25:07;96215.59;;;38.26;24.69
70141;BME280;57508;43.086;0.136;2022-07-15T07:27:33;96212.66;;;38.39;24.62
70141;BME280;57508;43.086;0.136;2022-07-15T07:29:58;96209.97;;;38.92;24.81
70141;BME280;57508;43.086;0.136;2022-07-15T07:32:24;96211.13;;;39.77;24.72
70141;BME280;57508;43.086;0.136;2022-07-15T07:34:49;96209.22;;;39.83;23.26
70141;BME280;57508;43.086;0.136;2022-07-15T07:37:15;96209.09;;;40.42;22.62
70141;BME280;57508;43.086;0.136;2022-07-15T07:39:40;96210.34;;;40.56;22.09
70141;BME280;57508;43.086;0.136;2022-07-15T07:42:06;96205.19;;;40.48;22.18
70141;BME280;57508;43.086;0.136;2022-07-15T07:44:31;96209.00;;;39.96;24.76
70141;BME280;57508;43.086;0.136;2022-07-15T07:46:56;96210.13;;;40.44;23.90
70141;BME280;57508;43.086;0.136;2022-07-15T07:49:22;96213.13;;;40.86;23.14
70141;BME280;57508;43.086;0.136;2022-07-15T07:51:47;96208.06;;;40.99;23.04
70141;BME280;57508;43.086;0.136;2022-07-15T07:54:12;96209.38;;;41.04;24.47
70141;BME280;57508;43.086;0.136;2022-07-15T07:56:37;96202.91;;;40.47;23.55
70141;BME280;57508;43.086;0.136;2022-07-15T07:59:03;96209.16;;;40.32;24.12
70141;BME280;57508;43.086;0.136;2022-07-15T08:01:28;96207.69;;;40.76;24.42
70141;BME280;57508;43.086;0.136;2022-07-15T08:03:53;96207.69;;;40.61;23.09
70141;BME280;57508;43.086;0.136;2022-07-15T08:06:19;96204.53;;;40.84;22.96
70141;BME280;57508;43.086;0.136;2022-07-15T08:08:44;96206.63;;;41.04;23.30
70141;BME280;57508;43.086;0.136;2022-07-15T08:11:09;96203.09;;;40.73;23.99
70141;BME280;57508;43.086;0.136;2022-07-15T08:13:35;96198.88;;;41.08;23.41
70141;BME280;57508;43.086;0.136;2022-07-15T08:16:00;96204.75;;;41.88;21.59
70141;BME280;57508;43.086;0.136;2022-07-15T08:18:26;96203.88;;;42.50;22.09
70141;BME280;57508;43.086;0.136;2022-07-15T08:20:51;96197.38;;;42.85;20.96
70141;BME280;57508;43.086;0.136;2022-07-15T08:23:17;96202.03;;;42.41;21.73
70141;BME280;57508;43.086;0.136;2022-07-15T08:25:46;96194.63;;;42.85;21.46
70141;BME280;57508;43.086;0.136;2022-07-15T08:28:11;96187.84;;;42.60;21.36
70141;BME280;57508;43.086;0.136;2022-07-15T08:30:37;96194.22;;;43.36;20.79
70141;BME280;57508;43.086;0.136;2022-07-15T08:33:02;96190.97;;;43.44;20.91
70141;BME280;57508;43.086;0.136;2022-07-15T08:35:28;96188.13;;;43.00;20.58
70141;BME280;57508;43.086;0.136;2022-07-15T08:37:54;96182.50;;;43.64;20.66
70141;BME280;57508;43.086;0.136;2022-07-15T08:40:19;96186.59;;;43.81;20.66
70141;BME280;57508;43.086;0.136;2022-07-15T08:42:45;96186.47;;;43.52;21.24
70141;BME280;57508;43.086;0.136;2022-07-15T08:45:11;96177.56;;;44.03;20.25
70141;BME280;57508;43.086;0.136;2022-07-15T08:47:37;96181.72;;;43.58;20.20
70141;BME280;57508;43.086;0.136;2022-07-15T08:50:03;96185.97;;;43.53;20.34
70141;BME280;57508;43.086;0.136;2022-07-15T08:52:29;96176.41;;;44.55;19.17
70141;BME280;57508;43.086;0.136;2022-07-15T08:54:57;96188.28;;;45.08;20.24
70141;BME280;57508;43.086;0.136;2022-07-15T08:57:23;96177.19;;;45.78;19.06
70141;BME280;57508;43.086;0.136;2022-07-15T08:59:48;96178.25;;;45.70;18.87
70141;BME280;57508;43.086;0.136;2022-07-15T09:02:14;96183.25;;;45.88;18.42
70141;BME280;57508;43.086;0.136;2022-07-15T09:07:23;96182.50;;;45.82;19.20
70141;BME280;57508;43.086;0.136;2022-07-15T09:09:49;96177.88;;;45.31;19.04
70141;BME280;57508;43.086;0.136;2022-07-15T09:12:15;96182.69;;;45.30;19.66
70141;BME280;57508;43.086;0.136;2022-07-15T09:14:41;96180.44;;;44.95;18.59
70141;BME280;57508;43.086;0.136;2022-07-15T09:22:19;96173.31;;;45.99;17.66
70141;BME280;57508;43.086;0.136;2022-07-15T09:24:44;96172.25;;;46.02;16.33
70141;BME280;57508;43.086;0.136;2022-07-15T09:29:54;96165.06;;;47.16;16.84
70141;BME280;57508;43.086;0.136;2022-07-15T09:32:38;96164.38;;;46.48;17.27
70141;BME280;57508;43.086;0.136;2022-07-15T09:35:22;96156.91;;;46.93;17.33
70141;BME280;57508;43.086;0.136;2022-07-15T09:38:05;96159.94;;;45.80;16.53
70141;BME280;57508;43.086;0.136;2022-07-15T09:40:32;96153.50;;;46.75;16.88
70141;BME280;57508;43.086;0.136;2022-07-15T09:43:02;96164.00;;;47.19;17.20
70141;BME280;57508;43.086;0.136;2022-07-15T09:45:30;96161.69;;;46.31;17.44
70141;BME280;57508;43.086;0.136;2022-07-15T09:48:05;96160.03;;;46.53;17.31
70141;BME280;57508;43.086;0.136;2022-07-15T09:50:32;96158.97;;;46.87;16.63
70141;BME280;57508;43.086;0.136;2022-07-15T09:52:57;96153.34;;;46.92;16.73
70141;BME280;57508;43.086;0.136;2022-07-15T09:55:23;96154.03;;;46.99;16.63
70141;BME280;57508;43.086;0.136;2022-07-15T09:57:48;96159.00;;;47.12;16.99
70141;BME280;57508;43.086;0.136;2022-07-15T10:00:14;96156.13;;;47.42;17.72
70141;BME280;57508;43.086;0.136;2022-07-15T10:02:39;96155.25;;;47.53;16.06
70141;BME280;57508;43.086;0.136;2022-07-15T10:05:05;96154.44;;;47.34;16.43
70141;BME280;57508;43.086;0.136;2022-07-15T10:07:30;96151.09;;;47.60;16.82
70141;BME280;57508;43.086;0.136;2022-07-15T10:09:56;96146.81;;;47.34;16.70
70141;BME280;57508;43.086;0.136;2022-07-15T10:12:23;96144.34;;;47.00;17.04
70141;BME280;57508;43.086;0.136;2022-07-15T10:25:44;96141.31;;;48.05;14.91
70141;BME280;57508;43.086;0.136;2022-07-15T10:28:05;96144.25;;;48.79;12.35
70141;BME280;57508;43.086;0.136;2022-07-15T10:30:33;96143.44;;;48.98;13.55
70141;BME280;57508;43.086;0.136;2022-07-15T10:33:09;96143.16;;;48.68;13.92
70141;BME280;57508;43.086;0.136;2022-07-15T10:35:53;96137.94;;;49.05;13.79
70141;BME280;57508;43.086;0.136;2022-07-15T10:41:03;96132.06;;;48.76;14.16
70141;BME280;57508;43.086;0.136;2022-07-15T10:46:03;96132.44;;;49.00;15.08
70141;BME280;57508;43.086;0.136;2022-07-15T10:48:29;96136.91;;;48.76;14.47
70141;BME280;57508;43.086;0.136;2022-07-15T10:50:55;96127.13;;;49.10;14.34
70141;BME280;57508;43.086;0.136;2022-07-15T10:53:22;96135.47;;;49.02;15.29
70141;BME280;57508;43.086;0.136;2022-07-15T10:55:49;96136.44;;;49.18;14.55
70141;BME280;57508;43.086;0.136;2022-07-15T10:58:15;96127.25;;;49.31;14.35
70141;BME280;57508;43.086;0.136;2022-07-15T11:00:42;96127.78;;;49.43;14.91
70141;BME280;57508;43.086;0.136;2022-07-15T11:10:52;96124.38;;;49.71;13.28
70141;BME280;57508;43.086;0.136;2022-07-15T11:13:17;96121.84;;;49.47;13.15
70141;BME280;57508;43.086;0.136;2022-07-15T11:16:00;96112.59;;;49.73;12.99
70141;BME280;57508;43.086;0.136;2022-07-15T11:18:25;96122.06;;;48.81;13.81
70141;BME280;57508;43.086;0.136;2022-07-15T11:20:50;96106.97;;;48.84;13.81
70141;BME280;57508;43.086;0.136;2022-07-15T11:23:17;96111.06;;;49.51;14.24
70141;BME280;57508;43.086;0.136;2022-07-15T11:25:43;96100.94;;;49.07;13.43
70141;BME280;57508;43.086;0.136;2022-07-15T11:28:12;96097.28;;;49.12;13.98
70141;BME280;57508;43.086;0.136;2022-07-15T11:30:42;96099.31;;;49.39;13.47
70141;BME280;57508;43.086;0.136;2022-07-15T11:33:09;96102.84;;;49.53;12.51
70141;BME280;57508;43.086;0.136;2022-07-15T11:38:09;96093.78;;;49.47;12.19
70141;BME280;57508;43.086;0.136;2022-07-15T11:40:34;96087.25;;;49.17;12.62
70141;BME280;57508;43.086;0.136;2022-07-15T11:43:19;96092.09;;;50.00;13.30
70141;BME280;57508;43.086;0.136;2022-07-15T11:46:04;96093.69;;;49.87;12.76
70141;BME280;57508;43.086;0.136;2022-07-15T11:48:33;96078.63;;;49.63;12.88
70141;BME280;57508;43.086;0.136;2022-07-15T11:50:59;96088.34;;;49.62;13.28
70141;BME280;57508;43.086;0.136;2022-07-15T11:53:24;96081.97;;;48.73;13.82
70141;BME280;57508;43.086;0.136;2022-07-15T11:55:54;96088.69;;;49.58;14.77
70141;BME280;57508;43.086;0.136;2022-07-15T12:00:51;96084.22;;;49.77;13.69
70141;BME280;57508;43.086;0.136;2022-07-15T12:03:16;96087.84;;;49.85;13.07
70141;BME280;57508;43.086;0.136;2022-07-15T12:05:42;96077.81;;;49.55;13.19
70141;BME280;57508;43.086;0.136;2022-07-15T12:08:07;96076.03;;;50.00;13.21
70141;BME280;57508;43.086;0.136;2022-07-15T12:10:33;96074.16;;;49.81;14.28
70141;BME280;57508;43.086;0.136;2022-07-15T12:13:01;96074.03;;;49.52;13.40
70141;BME280;57508;43.086;0.136;2022-07-15T12:15:30;96085.84;;;49.37;13.27
70141;BME280;57508;43.086;0.136;2022-07-15T12:17:55;96075.06;;;49.63;13.68
70141;BME280;57508;43.086;0.136;2022-07-15T12:20:21;96068.16;;;49.15;12.93
70141;BME280;57508;43.086;0.136;2022-07-15T12:23:06;96064.84;;;49.87;12.19
70141;BME280;57508;43.086;0.136;2022-07-15T12:25:31;96066.00;;;49.08;12.96
70141;BME280;57508;43.086;0.136;2022-07-15T12:27:57;96067.31;;;49.90;12.34
70141;BME280;57508;43.086;0.136;2022-07-15T12:30:30;96067.16;;;49.75;13.01
70141;BME280;57508;43.086;0.136;2022-07-15T12:33:12;96061.50;;;50.10;12.55
70141;BME280;57508;43.086;0.136;2022-07-15T12:35:37;96056.69;;;49.96;12.70
70141;BME280;57508;43.086;0.136;2022-07-15T12:38:02;96051.84;;;49.97;12.42
70141;BME280;57508;43.086;0.136;2022-07-15T12:40:27;96052.06;;;49.99;12.70
70141;BME280;57508;43.086;0.136;2022-07-15T12:42:53;96055.19;;;50.67;12.23
70141;BME280;57508;43.086;0.136;2022-07-15T12:45:35;96051.16;;;49.83;12.49
70141;BME280;57508;43.086;0.136;2022-07-15T12:48:02;96044.16;;;49.28;12.66
70141;BME280;57508;43.086;0.136;2022-07-15T12:50:28;96050.66;;;49.71;12.72
70141;BME280;57508;43.086;0.136;2022-07-15T12:52:54;96044.09;;;49.90;12.65
70141;BME280;57508;43.086;0.136;2022-07-15T12:55:21;96049.66;;;50.03;12.55
70141;BME280;57508;43.086;0.136;2022-07-15T12:57:47;96051.66;;;49.60;12.72
70141;BME280;57508;43.086;0.136;2022-07-15T13:00:13;96045.56;;;50.26;11.82
70141;BME280;57508;43.086;0.136;2022-07-15T13:05:22;96043.78;;;49.58;13.01
70141;BME280;57508;43.086;0.136;2022-07-15T13:07:48;96044.19;;;49.98;13.27
70141;BME280;57508;43.086;0.136;2022-07-15T13:10:13;96033.69;;;49.77;12.61
70141;BME280;57508;43.086;0.136;2022-07-15T13:12:39;96031.69;;;49.85;12.05
70141;BME280;57508;43.086;0.136;2022-07-15T13:15:04;96033.69;;;50.19;12.87
70141;BME280;57508;43.086;0.136;2022-07-15T13:17:30;96024.78;;;50.07;12.14
70141;BME280;57508;43.086;0.136;2022-07-15T13:19:55;96033.34;;;50.02;12.09
70141;BME280;57508;43.086;0.136;2022-07-15T13:22:20;96022.66;;;49.09;12.63
70141;BME280;57508;43.086;0.136;2022-07-15T13:24:45;96034.38;;;48.94;12.89
70141;BME280;57508;43.086;0.136;2022-07-15T13:27:11;96038.56;;;49.98;12.87
70141;BME280;57508;43.086;0.136;2022-07-15T13:29:36;96031.22;;;49.94;13.04
70141;BME280;57508;43.086;0.136;2022-07-15T13:32:02;96031.59;;;48.94;13.21
70141;BME280;57508;43.086;0.136;2022-07-15T13:34:28;96027.31;;;48.19;13.80
70141;BME280;57508;43.086;0.136;2022-07-15T13:36:53;96025.75;;;47.91;14.12